createdAt,value
2023-01-23T00:02:08.166Z,0.31
2023-01-23T00:04:34.643Z,0.19
2023-01-23T00:07:03.429Z,0.02
2023-01-23T00:09:30.188Z,0.08
2023-01-23T00:11:56.658Z,-0.03
2023-01-23T00:14:23.174Z,-0.05
2023-01-23T00:16:49.810Z,-0.04
2023-01-23T00:19:16.275Z,-0.06
2023-01-23T00:21:42.912Z,-0.09
2023-01-23T00:24:11.283Z,-0.05
2023-01-23T00:26:37.809Z,-0.05
2023-01-23T00:29:04.716Z,-0.06
2023-01-23T00:31:37.652Z,-0.11
2023-01-23T00:34:07.157Z,-0.09
2023-01-23T00:36:36.515Z,-0.18
2023-01-23T00:39:06.900Z,-0.15
2023-01-23T00:41:33.695Z,-0.18
2023-01-23T00:44:00.227Z,-0.23
2023-01-23T00:46:26.970Z,-0.19
2023-01-23T00:48:53.460Z,-0.19
2023-01-23T00:51:20.053Z,-0.17
2023-01-23T00:53:46.920Z,-0.11
2023-01-23T00:56:13.719Z,-0.13
2023-01-23T00:58:42.826Z,-0.16
2023-01-23T01:01:11.671Z,-0.16
2023-01-23T01:03:38.288Z,-0.02
2023-01-23T01:06:05.065Z,-0.08
2023-01-23T01:08:31.604Z,-0.12
2023-01-23T01:10:58.265Z,-0.10
2023-01-23T01:13:25.069Z,-0.12
2023-01-23T01:15:52.922Z,-0.13
2023-01-23T01:18:20.807Z,-0.05
2023-01-23T01:20:48.142Z,-0.09
2023-01-23T01:23:15.024Z,-0.08
2023-01-23T01:25:41.748Z,-0.05
2023-01-23T01:28:08.477Z,0.09
2023-01-23T01:30:37.103Z,0.16
2023-01-23T01:33:03.851Z,0.23
2023-01-23T01:35:30.424Z,0.16
2023-01-23T01:37:57.055Z,0.04
2023-01-23T01:40:26.592Z,-0.12
2023-01-23T01:42:59.658Z,-0.15
2023-01-23T01:46:03.741Z,0.01
2023-01-23T01:48:35.163Z,0.07
2023-01-23T01:51:05.778Z,-0.22
2023-01-23T01:53:33.233Z,-0.19
2023-01-23T01:56:00.527Z,-0.26
2023-01-23T01:58:27.548Z,-0.19
2023-01-23T02:00:54.932Z,-0.19
2023-01-23T02:03:21.661Z,-0.09
2023-01-23T02:05:49.935Z,-0.16
2023-01-23T02:08:42.261Z,-0.15
2023-01-23T02:11:08.869Z,-0.18
2023-01-23T02:13:40.076Z,-0.22
2023-01-23T02:16:08.119Z,-0.26
2023-01-23T02:18:36.512Z,-0.17
2023-01-23T02:21:07.664Z,-0.17
2023-01-23T02:23:58.397Z,-0.16
2023-01-23T02:26:45.845Z,-0.10
2023-01-23T02:29:13.641Z,-0.08
2023-01-23T02:31:42.827Z,-0.17
2023-01-23T02:34:11.155Z,-0.14
2023-01-23T02:36:37.874Z,-0.17
2023-01-23T02:39:09.876Z,-0.10
2023-01-23T02:41:46.067Z,-0.11
2023-01-23T02:44:27.642Z,-0.15
2023-01-23T02:46:59.482Z,-0.02
2023-01-23T02:49:26.573Z,-0.05
2023-01-23T02:51:54.197Z,-0.07
2023-01-23T02:54:21.659Z,-0.05
2023-01-23T02:56:48.211Z,-0.09
2023-01-23T02:59:33.373Z,-0.12
2023-01-23T03:02:00.308Z,-0.01
2023-01-23T03:04:26.894Z,-0.05
2023-01-23T03:06:53.449Z,-0.08
2023-01-23T03:09:20.177Z,-0.08
2023-01-23T03:11:46.805Z,-0.05
2023-01-23T03:14:16.127Z,-0.06
2023-01-23T03:16:42.998Z,-0.08
2023-01-23T03:19:10.205Z,0.07
2023-01-23T03:21:40.987Z,0.02
2023-01-23T03:24:09.611Z,0.03
2023-01-23T03:26:39.746Z,-0.06
2023-01-23T03:29:25.533Z,-0.11
2023-01-23T03:31:52.548Z,-0.03
2023-01-23T03:34:19.127Z,-0.17
2023-01-23T03:36:46.090Z,-0.18
2023-01-23T03:39:31.645Z,-0.17
2023-01-23T03:41:58.292Z,-0.21
2023-01-23T03:44:24.827Z,-0.14
2023-01-23T03:46:52.409Z,-0.16
2023-01-23T03:49:19.502Z,-0.06
2023-01-23T03:51:46.140Z,-0.02
2023-01-23T03:54:14.560Z,-0.06
2023-01-23T03:56:42.953Z,-0.10
2023-01-23T03:59:09.685Z,-0.13
2023-01-23T04:01:36.731Z,-0.10
2023-01-23T04:04:03.424Z,-0.03
2023-01-23T04:06:30.168Z,-0.06
2023-01-23T04:08:58.188Z,-0.09
2023-01-23T04:11:28.645Z,-0.10
2023-01-23T04:13:55.315Z,-0.07
2023-01-23T04:16:22.899Z,-0.15
2023-01-23T04:18:50.708Z,-0.16
2023-01-23T04:21:17.428Z,-0.20
2023-01-23T04:23:44.097Z,-0.21
2023-01-23T04:26:10.778Z,-0.17
2023-01-23T04:28:37.267Z,-0.16
2023-01-23T04:31:04.367Z,-0.14
2023-01-23T04:33:31.141Z,-0.13
2023-01-23T04:36:03.607Z,-0.10
2023-01-23T04:38:31.464Z,-0.16
2023-01-23T04:40:58.025Z,-0.13
2023-01-23T04:43:25.352Z,-0.18
2023-01-23T04:45:53.508Z,-0.25
2023-01-23T04:48:20.104Z,-0.18
2023-01-23T04:50:46.570Z,-0.14
2023-01-23T04:53:14.278Z,-0.14
2023-01-23T04:55:41.235Z,-0.07
2023-01-23T04:58:08.140Z,-0.06
2023-01-23T05:00:34.874Z,-0.11
2023-01-23T05:03:02.650Z,-0.15
2023-01-23T05:05:29.322Z,-0.12
2023-01-23T05:07:56.161Z,-0.17
2023-01-23T05:10:22.874Z,-0.19
2023-01-23T05:12:49.547Z,-0.17
2023-01-23T05:15:17.357Z,-0.20
2023-01-23T05:17:44.058Z,-0.23
2023-01-23T05:20:11.079Z,-0.21
2023-01-23T05:22:37.784Z,-0.14
2023-01-23T05:25:04.636Z,-0.24
2023-01-23T05:27:31.265Z,-0.24
2023-01-23T05:29:57.936Z,-0.17
2023-01-23T05:32:24.442Z,-0.21
2023-01-23T05:34:50.943Z,-0.17
2023-01-23T05:37:17.675Z,-0.17
2023-01-23T05:39:44.339Z,-0.04
2023-01-23T05:42:10.835Z,-0.04
2023-01-23T05:44:37.449Z,-0.05
2023-01-23T05:47:04.035Z,-0.04
2023-01-23T05:49:30.532Z,-0.14
2023-01-23T05:51:57.117Z,-0.12
2023-01-23T05:54:23.714Z,-0.04
2023-01-23T05:56:50.198Z,-0.04
2023-01-23T05:59:16.744Z,-0.03
2023-01-23T06:01:43.256Z,0.00
2023-01-23T06:04:09.799Z,-0.04
2023-01-23T06:06:36.672Z,-0.06
2023-01-23T06:09:03.473Z,-0.06
2023-01-23T06:11:30.037Z,-0.11
2023-01-23T06:13:56.900Z,-0.13
2023-01-23T06:16:23.396Z,-0.04
2023-01-23T06:18:49.913Z,-0.04
2023-01-23T06:21:18.501Z,-0.06
2023-01-23T06:23:45.976Z,-0.04
2023-01-23T06:26:13.173Z,-0.07
2023-01-23T06:28:40.361Z,-0.05
2023-01-23T06:31:09.355Z,-0.01
2023-01-23T06:33:38.875Z,-0.02
2023-01-23T06:36:06.798Z,0.03
2023-01-23T06:38:33.520Z,0.04
2023-01-23T06:41:00.024Z,-0.06
2023-01-23T06:43:27.181Z,-0.10
2023-01-23T06:45:53.710Z,0.02
2023-01-23T06:48:20.844Z,-0.01
2023-01-23T06:50:47.833Z,-0.05
2023-01-23T06:53:15.538Z,-0.01
2023-01-23T06:55:42.281Z,0.04
2023-01-23T06:58:09.192Z,-0.05
2023-01-23T07:00:35.773Z,-0.05
2023-01-23T07:03:05.486Z,0.03
2023-01-23T07:05:33.056Z,0.02
2023-01-23T07:07:59.591Z,0.00
2023-01-23T07:10:26.411Z,0.15
2023-01-23T07:12:53.272Z,0.11
2023-01-23T07:15:19.765Z,0.06
2023-01-23T07:17:46.259Z,0.20
2023-01-23T07:20:13.104Z,0.10
2023-01-23T07:22:40.112Z,0.10
2023-01-23T07:25:07.925Z,0.13
2023-01-23T07:27:34.716Z,0.19
2023-01-23T07:30:01.249Z,0.19
2023-01-23T07:32:27.831Z,0.12
2023-01-23T07:34:54.968Z,0.16
2023-01-23T07:37:21.597Z,0.13
2023-01-23T07:39:49.133Z,0.16
2023-01-23T07:42:15.872Z,0.15
2023-01-23T07:44:42.399Z,0.19
2023-01-23T07:47:09.062Z,0.08
2023-01-23T07:49:35.861Z,0.13
2023-01-23T07:52:02.479Z,0.12
2023-01-23T07:54:29.036Z,0.14
2023-01-23T07:56:56.385Z,0.29
2023-01-23T07:59:22.927Z,0.22
2023-01-23T08:01:51.290Z,0.39
2023-01-23T08:04:21.060Z,0.22
2023-01-23T08:06:47.639Z,0.15
2023-01-23T08:09:14.352Z,0.15
2023-01-23T08:11:41.654Z,0.11
2023-01-23T08:14:08.146Z,0.11
2023-01-23T08:16:34.749Z,0.19
2023-01-23T08:19:01.563Z,0.22
2023-01-23T08:21:28.107Z,0.25
2023-01-23T08:23:54.551Z,0.18
2023-01-23T08:26:21.403Z,0.25
2023-01-23T08:28:47.979Z,0.38
2023-01-23T08:31:15.871Z,0.32
2023-01-23T08:33:42.904Z,0.45
2023-01-23T08:36:12.235Z,0.45
2023-01-23T08:38:38.991Z,0.41
2023-01-23T08:41:05.765Z,0.39
2023-01-23T08:43:32.435Z,0.32
2023-01-23T08:45:59.745Z,0.33
2023-01-23T08:48:27.670Z,0.38
2023-01-23T08:51:03.210Z,0.50
2023-01-23T08:53:30.994Z,0.49
2023-01-23T08:56:05.048Z,0.48
2023-01-23T08:58:31.994Z,0.57
2023-01-23T09:00:58.664Z,0.69
2023-01-23T09:03:25.300Z,0.60
2023-01-23T09:05:52.032Z,0.53
2023-01-23T09:08:18.668Z,0.51
2023-01-23T09:10:45.154Z,0.53
2023-01-23T09:13:12.109Z,0.47
2023-01-23T09:15:40.024Z,0.72
2023-01-23T09:18:06.583Z,0.70
2023-01-23T09:20:33.338Z,0.72
2023-01-23T09:23:00.042Z,0.68
2023-01-23T09:25:26.735Z,0.62
2023-01-23T09:27:53.523Z,0.53
2023-01-23T09:30:20.521Z,0.48
2023-01-23T09:32:47.317Z,0.46
2023-01-23T09:35:13.961Z,0.48
2023-01-23T09:37:59.721Z,0.39
2023-01-23T09:40:35.573Z,0.45
2023-01-23T09:43:09.690Z,0.37
2023-01-23T09:45:37.396Z,0.37
2023-01-23T09:48:24.268Z,0.39
2023-01-23T09:51:01.657Z,0.27
2023-01-23T09:53:35.281Z,0.41
2023-01-23T09:56:23.267Z,0.43
2023-01-23T09:59:24.799Z,0.36
2023-01-23T10:01:51.576Z,0.43
2023-01-23T10:04:19.754Z,0.50
2023-01-23T10:07:08.473Z,0.49
2023-01-23T10:10:14.896Z,0.40
2023-01-23T10:13:03.111Z,0.43
2023-01-23T10:15:53.699Z,0.48
2023-01-23T10:18:28.524Z,0.49
2023-01-23T10:21:08.082Z,0.50
2023-01-23T10:23:57.451Z,0.46
2023-01-23T10:26:28.057Z,0.51
2023-01-23T10:28:59.753Z,0.51
2023-01-23T10:31:38.536Z,0.56
2023-01-23T10:34:11.376Z,0.59
2023-01-23T10:36:53.865Z,0.71
2023-01-23T10:39:26.883Z,0.87
2023-01-23T10:42:01.492Z,0.86
2023-01-23T10:44:28.824Z,0.84
2023-01-23T10:47:00.996Z,0.99
2023-01-23T10:49:35.186Z,0.92
2023-01-23T10:52:02.234Z,0.82
2023-01-23T10:54:32.563Z,0.82
2023-01-23T10:57:02.553Z,0.80
2023-01-23T10:59:36.233Z,0.85
2023-01-23T11:02:18.595Z,0.84
2023-01-23T11:04:47.535Z,0.79
2023-01-23T11:07:19.995Z,0.92
2023-01-23T11:10:12.229Z,0.97
2023-01-23T11:12:50.387Z,0.87
2023-01-23T11:15:31.502Z,0.76
2023-01-23T11:18:01.091Z,0.67
2023-01-23T11:20:37.521Z,0.81
2023-01-23T11:23:16.002Z,0.71
2023-01-23T11:25:43.576Z,0.76
2023-01-23T11:28:31.187Z,0.76
2023-01-23T11:31:16.260Z,0.79
2023-01-23T11:33:54.960Z,0.74
2023-01-23T11:36:38.655Z,0.86
2023-01-23T11:39:35.954Z,0.90
2023-01-23T11:42:02.727Z,0.98
2023-01-23T11:44:32.347Z,0.98
2023-01-23T11:47:07.571Z,0.88
2023-01-23T11:50:02.039Z,0.84
2023-01-23T11:52:34.738Z,0.83
2023-01-23T11:55:26.341Z,1.02
2023-01-23T11:58:14.772Z,1.07
2023-01-23T12:00:41.558Z,1.00
2023-01-23T12:03:18.168Z,1.10
2023-01-23T12:06:13.818Z,1.15
2023-01-23T12:09:16.774Z,1.08
2023-01-23T12:12:24.613Z,1.06
2023-01-23T12:15:05.193Z,1.00
2023-01-23T12:17:42.676Z,0.97
2023-01-23T12:20:24.289Z,1.10
2023-01-23T12:23:08.941Z,1.07
2023-01-23T12:25:40.060Z,1.03
2023-01-23T12:28:18.131Z,1.05
2023-01-23T12:31:05.581Z,1.13
2023-01-23T12:33:43.680Z,1.16
2023-01-23T12:36:32.079Z,1.03
2023-01-23T12:39:21.004Z,0.96
2023-01-23T12:41:53.540Z,0.95
2023-01-23T12:44:42.046Z,1.04
2023-01-23T12:47:16.787Z,0.90
2023-01-23T12:49:58.762Z,0.89
2023-01-23T12:52:34.982Z,0.99
2023-01-23T12:55:19.247Z,0.98
2023-01-23T12:57:59.612Z,0.97
2023-01-23T13:00:52.858Z,0.87
2023-01-23T13:03:37.457Z,0.91
2023-01-23T13:06:18.625Z,0.82
2023-01-23T13:09:18.720Z,0.91
2023-01-23T13:12:23.615Z,0.95
2023-01-23T13:15:34.434Z,0.97
2023-01-23T13:18:03.553Z,0.92
2023-01-23T13:20:56.704Z,0.76
2023-01-23T13:23:32.603Z,0.76
2023-01-23T13:26:19.682Z,0.87
2023-01-23T13:28:57.184Z,0.86
2023-01-23T13:31:36.893Z,0.81
2023-01-23T13:34:16.221Z,0.72
2023-01-23T13:36:44.273Z,0.73
2023-01-23T13:39:16.809Z,0.71
2023-01-23T13:41:44.728Z,0.70
2023-01-23T13:44:40.874Z,0.72
2023-01-23T14:24:47.534Z,0.67
2023-01-23T14:27:52.270Z,0.69
2023-01-23T14:30:24.906Z,0.68
2023-01-23T14:32:51.802Z,0.68
2023-01-23T14:35:41.429Z,0.67
2023-01-23T14:38:08.267Z,0.63
2023-01-23T14:40:48.852Z,0.65
2023-01-23T14:43:28.082Z,0.64
2023-01-23T14:46:01.873Z,0.68
2023-01-23T14:48:29.482Z,0.70
2023-01-23T14:51:23.488Z,0.65
2023-01-23T14:54:05.173Z,0.59
2023-01-23T14:56:38.124Z,0.57
2023-01-23T14:59:07.146Z,0.52
2023-01-23T15:01:35.835Z,0.54
2023-01-23T15:04:21.310Z,0.52
2023-01-23T15:06:53.031Z,0.52
2023-01-23T15:09:32.301Z,0.52
2023-01-23T15:12:07.165Z,0.60
2023-01-23T15:14:43.548Z,0.65
2023-01-23T15:17:15.221Z,0.56
2023-01-23T15:19:42.155Z,0.47
2023-01-23T15:22:19.555Z,0.45
2023-01-23T15:24:46.855Z,0.49
2023-01-23T15:27:32.789Z,0.44
2023-01-23T15:30:33.198Z,0.45
2023-01-23T15:33:06.292Z,0.40
2023-01-23T15:35:37.888Z,0.38
2023-01-23T15:38:06.708Z,0.43
2023-01-23T15:40:38.701Z,0.39
2023-01-23T15:43:13.443Z,0.37
2023-01-23T15:45:40.433Z,0.40
2023-01-23T15:48:06.981Z,0.42
2023-01-23T15:50:33.687Z,0.37
2023-01-23T15:53:00.328Z,0.34
2023-01-23T15:55:27.350Z,0.35
2023-01-23T15:57:54.580Z,0.36
2023-01-23T16:00:27.187Z,0.43
2023-01-23T16:02:57.285Z,0.46
2023-01-23T16:05:35.367Z,0.41
2023-01-23T16:08:02.564Z,0.39
2023-01-23T16:10:31.774Z,0.41
2023-01-23T16:12:58.900Z,0.40
2023-01-23T16:15:30.801Z,0.40
2023-01-23T16:17:57.422Z,0.34
2023-01-23T16:20:28.536Z,0.34
2023-01-23T16:23:01.860Z,0.31
2023-01-23T16:25:44.000Z,0.31
2023-01-23T16:28:16.785Z,0.40
2023-01-23T16:30:44.232Z,0.40
2023-01-23T16:33:11.069Z,0.45
2023-01-23T16:35:37.742Z,0.43
2023-01-23T16:38:05.584Z,0.49
2023-01-23T16:40:32.711Z,0.44
2023-01-23T16:42:59.990Z,0.46
2023-01-23T16:45:28.675Z,0.49
2023-01-23T16:47:55.550Z,0.46
2023-01-23T16:50:34.027Z,0.55
2023-01-23T16:53:04.705Z,0.60
2023-01-23T16:55:41.912Z,0.59
2023-01-23T16:58:14.471Z,0.61
2023-01-23T17:00:44.494Z,0.58
2023-01-23T17:03:11.189Z,0.56
2023-01-23T17:05:37.840Z,0.51
2023-01-23T17:08:21.647Z,0.55
2023-01-23T17:10:51.193Z,0.54
2023-01-23T17:13:18.669Z,0.56
2023-01-23T17:15:45.566Z,0.53
2023-01-23T17:18:33.697Z,0.61
2023-01-23T17:21:00.488Z,0.57
2023-01-23T17:23:27.272Z,0.57
2023-01-23T17:26:00.731Z,0.57
2023-01-23T17:28:28.705Z,0.55
2023-01-23T17:50:44.381Z,0.43
2023-01-23T17:53:17.339Z,0.46
2023-01-23T17:55:48.057Z,0.43
2023-01-23T17:58:15.394Z,0.37
2023-01-23T18:00:43.428Z,0.43
2023-01-23T18:03:14.306Z,0.43
2023-01-23T18:05:40.947Z,0.35
2023-01-23T18:08:10.807Z,0.39
2023-01-23T18:10:37.867Z,0.40
2023-01-23T18:13:16.456Z,0.37
2023-01-23T18:16:12.937Z,0.44
2023-01-23T18:18:40.669Z,0.41
2023-01-23T18:21:14.045Z,0.44
2023-01-23T18:23:41.051Z,0.46
2023-01-23T18:26:16.445Z,0.43
2023-01-23T18:28:54.894Z,0.39
2023-01-23T18:31:27.484Z,0.36
2023-01-23T18:34:06.089Z,0.36
2023-01-23T18:36:53.482Z,0.38
2023-01-23T18:42:59.427Z,0.50
2023-01-23T18:45:27.635Z,0.66
2023-01-23T18:47:54.786Z,0.66
2023-01-23T18:50:27.103Z,0.57
2023-01-23T18:53:16.395Z,0.51
2023-01-23T18:55:48.592Z,0.72
2023-01-23T19:01:39.808Z,0.83
2023-01-23T19:04:13.642Z,0.87
2023-01-23T19:06:41.299Z,0.58
2023-01-23T19:09:18.523Z,0.45
2023-01-23T19:11:56.998Z,0.46
2023-01-23T19:14:50.787Z,0.41
2023-01-23T19:17:20.532Z,0.41
2023-01-23T19:20:01.003Z,0.46
2023-01-23T19:22:34.612Z,0.46
2023-01-23T19:25:01.486Z,0.55
2023-01-23T19:27:29.568Z,0.70
2023-01-23T19:29:56.249Z,0.78
2023-01-23T19:32:23.317Z,0.96
2023-01-23T19:34:49.804Z,0.81
2023-01-23T19:37:16.536Z,0.80
2023-01-23T19:39:43.334Z,0.79
2023-01-23T19:42:14.571Z,0.76
2023-01-23T19:44:41.681Z,0.60
2023-01-23T19:47:08.680Z,0.64
2023-01-23T19:49:35.827Z,0.61
2023-01-23T19:52:03.637Z,0.63
2023-01-23T19:54:30.429Z,0.70
2023-01-23T19:56:57.521Z,0.63
2023-01-23T19:59:25.165Z,0.59
2023-01-23T20:01:52.641Z,0.69
2023-01-23T20:04:21.339Z,0.57
2023-01-23T20:06:52.002Z,0.50
2023-01-23T20:09:18.968Z,0.43
2023-01-23T20:11:46.506Z,0.37
2023-01-23T20:14:13.663Z,0.39
2023-01-23T20:16:42.817Z,0.43
2023-01-23T20:19:13.980Z,0.48
2023-01-23T20:21:40.871Z,0.38
2023-01-23T20:24:08.457Z,0.36
2023-01-23T20:26:36.055Z,0.39
2023-01-23T20:29:04.190Z,0.39
2023-01-23T20:31:31.928Z,0.27
2023-01-23T20:33:58.625Z,0.26
2023-01-23T20:36:25.464Z,0.35
2023-01-23T20:38:52.162Z,0.30
2023-01-23T20:41:20.117Z,0.40
2023-01-23T20:43:47.235Z,0.34
2023-01-23T20:46:14.984Z,0.32
2023-01-23T20:48:46.130Z,0.29
2023-01-23T20:51:16.542Z,0.30
2023-01-23T20:53:43.164Z,0.32
2023-01-23T20:56:19.007Z,0.36
2023-01-23T20:59:06.229Z,0.34
2023-01-23T21:01:55.716Z,0.30
2023-01-23T21:04:23.955Z,0.29
2023-01-23T21:06:50.463Z,0.26
2023-01-23T21:09:17.501Z,0.22
2023-01-23T21:11:44.153Z,0.22
2023-01-23T21:14:11.278Z,0.34
2023-01-23T21:16:37.808Z,0.24
2023-01-23T21:19:04.298Z,0.33
2023-01-23T21:21:30.859Z,0.36
2023-01-23T21:23:57.556Z,0.26
2023-01-23T21:26:26.412Z,0.26
2023-01-23T21:28:54.337Z,0.31
2023-01-23T21:31:24.719Z,0.36
2023-01-23T21:33:51.425Z,0.29
2023-01-23T21:36:20.866Z,0.20
2023-01-23T21:38:47.573Z,0.18
2023-01-23T21:41:14.370Z,0.20
2023-01-23T21:43:42.227Z,0.25
2023-01-23T21:46:08.961Z,0.19
2023-01-23T21:48:35.998Z,0.22
2023-01-23T21:51:20.079Z,0.24
2023-01-23T21:53:48.389Z,0.16
2023-01-23T21:56:16.674Z,0.23
2023-01-23T21:58:43.547Z,0.30
2023-01-23T22:01:37.505Z,0.28
2023-01-23T22:04:07.274Z,0.46
2023-01-23T22:06:34.909Z,0.39
2023-01-23T22:09:01.545Z,0.46
2023-01-23T22:11:28.374Z,0.46
2023-01-23T22:13:55.389Z,0.47
2023-01-23T22:16:28.495Z,0.53
2023-01-23T22:19:06.966Z,0.47
2023-01-23T22:21:34.192Z,0.52
2023-01-23T22:24:01.479Z,0.45
2023-01-23T22:26:28.411Z,0.45
2023-01-23T22:28:55.027Z,0.36
2023-01-23T22:31:21.688Z,0.57
2023-01-23T22:33:48.763Z,0.59
2023-01-23T22:36:19.381Z,0.54
2023-01-23T22:38:55.832Z,0.55
2023-01-23T22:41:22.958Z,0.57
2023-01-23T22:43:54.248Z,0.58
2023-01-23T22:46:21.385Z,0.69
2023-01-23T22:48:47.910Z,0.67
2023-01-23T22:51:25.737Z,0.57
2023-01-23T22:53:53.592Z,0.58
2023-01-23T22:56:20.450Z,0.55
2023-01-23T22:58:48.196Z,0.52
2023-01-23T23:01:15.091Z,0.51
2023-01-23T23:03:41.681Z,0.48
2023-01-23T23:06:11.531Z,0.50
2023-01-23T23:08:38.273Z,0.47
2023-01-23T23:11:07.532Z,0.47
2023-01-23T23:13:36.942Z,0.57
2023-01-23T23:16:20.746Z,0.54
2023-01-23T23:18:48.658Z,0.59
2023-01-23T23:21:17.756Z,0.52
2023-01-23T23:23:44.392Z,0.50
2023-01-23T23:26:11.237Z,0.51
2023-01-23T23:28:38.830Z,0.51
2023-01-23T23:31:06.569Z,0.64
2023-01-23T23:33:33.308Z,0.49
2023-01-23T23:36:00.037Z,0.52
2023-01-23T23:38:26.548Z,0.54
2023-01-23T23:41:00.110Z,0.60
2023-01-23T23:43:27.360Z,0.58
2023-01-23T23:45:58.354Z,0.59
2023-01-23T23:48:25.908Z,0.54
2023-01-23T23:50:52.723Z,0.58
2023-01-23T23:53:19.317Z,0.50
2023-01-23T23:55:46.476Z,0.52
2023-01-23T23:58:13.093Z,0.62
